Time;durP1;ratioP1;P1;durP2;ratioP2;P2;SDS_P1;SDS_P2;PMS_P1;PMS_P2;Temp;Humidity;BMP_temperature;BMP_pressure;BME280_temperature;BME280_humidity;BME280_pressure;Samples;Min_cycle;Max_cycle;Signal;HPM_P1;HPM_P2
2023/09/25 00:01:43;;;;;;;1.90;1.67;;;;;;;;;;5009233;28;20182;-53
2023/09/25 00:04:09;;;;;;;2.07;1.87;;;;;;;;;;5008514;28;20214;-54
2023/09/25 00:06:35;;;;;;;2.07;1.90;;;;;;;;;;5010206;28;20189;-54
2023/09/25 00:09:01;;;;;;;1.87;1.70;;;;;;;;;;5009065;28;20401;-54
2023/09/25 00:11:27;;;;;;;2.00;1.80;;;;;;;;;;5010076;28;20186;-54
2023/09/25 00:13:53;;;;;;;1.90;1.80;;;;;;;;;;5010020;28;20281;-54
2023/09/25 00:16:19;;;;;;;2.00;1.87;;;;;;;;;;4994070;28;20219;-54
2023/09/25 00:18:46;;;;;;;2.50;2.10;;;;;;;;;;5011532;28;20260;-54
2023/09/25 00:21:12;;;;;;;2.23;1.60;;;;;;;;;;5011659;28;20167;-54
2023/09/25 00:23:38;;;;;;;1.77;1.67;;;;;;;;;;5011712;28;20597;-54
2023/09/25 00:26:05;;;;;;;2.47;1.80;;;;;;;;;;4994210;28;20520;-51
2023/09/25 00:28:31;;;;;;;1.80;1.70;;;;;;;;;;5010692;28;20668;-52
2023/09/25 00:30:57;;;;;;;1.90;1.80;;;;;;;;;;5008931;28;20233;-52
2023/09/25 00:33:23;;;;;;;1.90;1.80;;;;;;;;;;5012051;28;20159;-51
2023/09/25 00:35:49;;;;;;;1.90;1.80;;;;;;;;;;5010781;28;20619;-51
2023/09/25 00:38:16;;;;;;;2.30;1.90;;;;;;;;;;5011930;28;20647;-53
2023/09/25 00:40:44;;;;;;;1.73;1.63;;;;;;;;;;5011261;28;20159;-51
2023/09/25 00:43:12;;;;;;;2.50;1.70;;;;;;;;;;5009957;28;20179;-55
2023/09/25 00:45:41;;;;;;;2.60;2.10;;;;;;;;;;5009436;28;20178;-53
2023/09/25 00:48:09;;;;;;;1.93;1.83;;;;;;;;;;5010188;28;20191;-52
2023/09/25 00:50:35;;;;;;;1.90;1.80;;;;;;;;;;5007927;28;20559;-53
2023/09/25 00:53:06;;;;;;;3.20;1.50;;;;;;;;;;5009802;28;20608;-53
2023/09/25 00:55:32;;;;;;;1.93;1.70;;;;;;;;;;5009226;28;20186;-53
2023/09/25 00:58:02;;;;;;;2.20;2.00;;;;;;;;;;5009324;28;20175;-53
2023/09/25 01:00:29;;;;;;;2.10;1.90;;;;;;;;;;5001895;28;20273;-53
2023/09/25 01:02:55;;;;;;;1.80;1.70;;;;;;;;;;5009133;28;20535;-52
2023/09/25 01:05:22;;;;;;;2.07;1.87;;;;;;;;;;5007544;28;20313;-52
2023/09/25 01:07:48;;;;;;;2.00;1.83;;;;;;;;;;5006124;28;20285;-52
2023/09/25 01:10:16;;;;;;;2.53;1.77;;;;;;;;;;5008959;28;20191;-52
2023/09/25 01:12:43;;;;;;;1.60;1.50;;;;;;;;;;5008132;28;20267;-52
2023/09/25 01:15:09;;;;;;;1.80;1.70;;;;;;;;;;4988378;28;20644;-53
2023/09/25 01:17:36;;;;;;;2.27;1.80;;;;;;;;;;5009167;28;20279;-56
2023/09/25 01:20:24;;;;;;;4.13;2.10;;;;;;;;;;5005049;28;20187;-53
2023/09/25 01:22:50;;;;;;;2.20;2.00;;;;;;;;;;5007950;28;20538;-54
2023/09/25 01:25:17;;;;;;;2.60;1.87;;;;;;;;;;5007650;28;20215;-53
2023/09/25 01:27:44;;;;;;;2.10;2.00;;;;;;;;;;5005357;28;20241;-54
2023/09/25 01:30:13;;;;;;;3.13;2.83;;;;;;;;;;5007870;28;20218;-54
2023/09/25 01:32:40;;;;;;;2.00;1.80;;;;;;;;;;5008936;28;20624;-53
2023/09/25 01:35:26;;;;;;;2.37;1.83;;;;;;;;;;5006951;28;20190;-53
2023/09/25 01:37:57;;;;;;;1.60;1.50;;;;;;;;;;5009109;28;20190;-53
2023/09/25 01:40:24;;;;;;;2.17;2.07;;;;;;;;;;5005735;28;20179;-53
2023/09/25 01:42:50;;;;;;;3.30;3.00;;;;;;;;;;5008307;28;20682;-53
2023/09/25 01:45:19;;;;;;;2.40;1.70;;;;;;;;;;4990912;28;20210;-54
2023/09/25 01:47:50;;;;;;;2.20;2.00;;;;;;;;;;5009414;28;20190;-54
2023/09/25 01:50:23;;;;;;;1.93;1.80;;;;;;;;;;5005046;28;20174;-53
2023/09/25 01:52:57;;;;;;;1.60;1.50;;;;;;;;;;5009009;28;20274;-54
2023/09/25 01:55:24;;;;;;;2.17;1.63;;;;;;;;;;5005542;28;20653;-53
2023/09/25 01:57:50;;;;;;;1.80;1.63;;;;;;;;;;5003139;28;20765;-54
2023/09/25 02:00:19;;;;;;;1.73;1.63;;;;;;;;;;5001887;28;20628;-54
2023/09/25 02:02:46;;;;;;;1.90;1.80;;;;;;;;;;5008118;28;20213;-54
2023/09/25 02:05:12;;;;;;;1.70;1.60;;;;;;;;;;5006322;28;20208;-53
2023/09/25 02:07:39;;;;;;;1.90;1.80;;;;;;;;;;5008052;28;20631;-54
2023/09/25 02:10:06;;;;;;;2.97;1.67;;;;;;;;;;5007414;28;20593;-54
2023/09/25 02:12:35;;;;;;;1.80;1.70;;;;;;;;;;5005454;28;20313;-54
2023/09/25 02:15:03;;;;;;;1.60;1.50;;;;;;;;;;5007200;28;20187;-54
2023/09/25 02:17:32;;;;;;;1.80;1.70;;;;;;;;;;5009432;28;20202;-54
2023/09/25 02:20:12;;;;;;;2.33;2.13;;;;;;;;;;5007880;28;20173;-54
2023/09/25 02:22:39;;;;;;;2.33;1.67;;;;;;;;;;5009606;28;20166;-54
2023/09/25 02:25:06;;;;;;;1.73;1.63;;;;;;;;;;5009192;28;20315;-54
2023/09/25 02:27:36;;;;;;;2.03;1.90;;;;;;;;;;5009452;28;20214;-54
2023/09/25 02:30:03;;;;;;;2.20;2.00;;;;;;;;;;4981807;28;20289;-54
2023/09/25 02:32:29;;;;;;;1.80;1.70;;;;;;;;;;5002640;28;20193;-54
2023/09/25 02:34:55;;;;;;;1.50;1.40;;;;;;;;;;5002359;28;20184;-54
2023/09/25 02:37:21;;;;;;;1.77;1.67;;;;;;;;;;4993988;28;20194;-54
2023/09/25 02:39:51;;;;;;;1.73;1.63;;;;;;;;;;4999042;28;21019;-54
2023/09/25 02:42:18;;;;;;;1.67;1.57;;;;;;;;;;5009415;28;20170;-56
2023/09/25 02:44:44;;;;;;;1.50;1.40;;;;;;;;;;5006416;28;20203;-54
2023/09/25 02:47:11;;;;;;;1.60;1.50;;;;;;;;;;5007160;28;20274;-54
2023/09/25 02:49:37;;;;;;;1.90;1.80;;;;;;;;;;5005099;28;20315;-54
2023/09/25 02:52:04;;;;;;;1.70;1.60;;;;;;;;;;5005159;28;20194;-54
2023/09/25 02:54:30;;;;;;;1.73;1.63;;;;;;;;;;4989279;28;20281;-54
2023/09/25 02:56:56;;;;;;;2.20;2.00;;;;;;;;;;5006203;28;20182;-54
2023/09/25 02:59:23;;;;;;;1.70;1.60;;;;;;;;;;5005810;28;20190;-54
2023/09/25 03:01:49;;;;;;;1.97;1.83;;;;;;;;;;5006595;28;20197;-54
2023/09/25 03:04:18;;;;;;;1.83;1.73;;;;;;;;;;5005073;28;20220;-55
2023/09/25 03:06:44;;;;;;;1.70;1.60;;;;;;;;;;5007977;28;20658;-54
2023/09/25 03:09:10;;;;;;;3.07;1.87;;;;;;;;;;4988963;28;20198;-54
2023/09/25 03:11:37;;;;;;;2.07;1.90;;;;;;;;;;5008397;28;20540;-54
2023/09/25 03:14:03;;;;;;;2.77;1.80;;;;;;;;;;5004217;28;20268;-54
2023/09/25 03:16:29;;;;;;;2.90;2.60;;;;;;;;;;5002328;28;20320;-54
2023/09/25 03:18:56;;;;;;;1.70;1.60;;;;;;;;;;5001291;28;20202;-54
2023/09/25 03:21:23;;;;;;;2.20;1.97;;;;;;;;;;5005253;28;20250;-54
2023/09/25 03:23:49;;;;;;;1.83;1.73;;;;;;;;;;5005915;28;20221;-54
2023/09/25 03:26:20;;;;;;;2.00;1.90;;;;;;;;;;5006394;28;20324;-54
2023/09/25 03:28:46;;;;;;;2.00;1.80;;;;;;;;;;5005249;28;20260;-54
2023/09/25 03:31:13;;;;;;;2.33;2.13;;;;;;;;;;4982917;28;20677;-54
2023/09/25 03:33:40;;;;;;;2.33;2.13;;;;;;;;;;5007053;28;20186;-54
2023/09/25 03:36:07;;;;;;;1.87;1.77;;;;;;;;;;4987972;28;20190;-54
2023/09/25 03:38:33;;;;;;;2.37;1.73;;;;;;;;;;5007031;28;20197;-54
2023/09/25 03:40:59;;;;;;;2.07;1.80;;;;;;;;;;5006030;28;20190;-54
2023/09/25 03:43:26;;;;;;;1.73;1.63;;;;;;;;;;5005565;28;20216;-54
2023/09/25 03:45:53;;;;;;;1.90;1.80;;;;;;;;;;5005763;28;20182;-54
2023/09/25 03:48:19;;;;;;;2.17;1.70;;;;;;;;;;5006080;28;20522;-54
2023/09/25 03:50:45;;;;;;;2.17;1.90;;;;;;;;;;5005299;28;20187;-54
2023/09/25 03:53:12;;;;;;;2.30;1.90;;;;;;;;;;5006479;28;20175;-54
2023/09/25 03:55:39;;;;;;;1.80;1.70;;;;;;;;;;5006310;28;20188;-54
2023/09/25 03:58:05;;;;;;;1.80;1.70;;;;;;;;;;5005843;28;20659;-53
2023/09/25 04:00:31;;;;;;;1.83;1.73;;;;;;;;;;5004309;28;20679;-54
2023/09/25 04:02:58;;;;;;;1.97;1.83;;;;;;;;;;5006486;28;20195;-54
2023/09/25 04:05:26;;;;;;;2.30;2.13;;;;;;;;;;5008473;28;20219;-54
2023/09/25 04:07:52;;;;;;;2.43;2.03;;;;;;;;;;5010898;28;20184;-54
2023/09/25 04:10:19;;;;;;;1.80;1.70;;;;;;;;;;5009515;28;20191;-55
2023/09/25 04:12:45;;;;;;;1.90;1.73;;;;;;;;;;5009831;28;20196;-54
2023/09/25 04:15:16;;;;;;;2.07;1.73;;;;;;;;;;4990620;28;20340;-54
2023/09/25 04:17:43;;;;;;;2.40;1.80;;;;;;;;;;5000870;28;20202;-54
2023/09/25 04:20:16;;;;;;;2.20;1.90;;;;;;;;;;4991209;28;20687;-54
2023/09/25 04:22:43;;;;;;;2.30;2.10;;;;;;;;;;4992420;28;20179;-53
2023/09/25 04:25:18;;;;;;;2.40;2.20;;;;;;;;;;5008467;28;20214;-54
2023/09/25 04:27:44;;;;;;;1.83;1.73;;;;;;;;;;4993575;28;20899;-54
2023/09/25 04:30:14;;;;;;;1.90;1.70;;;;;;;;;;5009403;28;20310;-53
2023/09/25 04:32:40;;;;;;;1.57;1.47;;;;;;;;;;5008389;28;20669;-54
2023/09/25 04:35:07;;;;;;;2.30;1.90;;;;;;;;;;5007634;28;20190;-53
2023/09/25 04:37:34;;;;;;;1.80;1.70;;;;;;;;;;5007656;28;20250;-53
2023/09/25 04:40:00;;;;;;;2.37;1.90;;;;;;;;;;5010282;28;20786;-54
2023/09/25 04:42:27;;;;;;;1.93;1.73;;;;;;;;;;5009944;28;20682;-53
2023/09/25 04:44:53;;;;;;;1.60;1.50;;;;;;;;;;4984148;28;20311;-53
2023/09/25 04:47:19;;;;;;;2.33;1.80;;;;;;;;;;5004641;28;20676;-54
2023/09/25 04:49:45;;;;;;;1.70;1.60;;;;;;;;;;4998328;28;20190;-53
2023/09/25 04:52:11;;;;;;;2.20;2.00;;;;;;;;;;5008568;28;20661;-54
2023/09/25 04:54:37;;;;;;;2.07;1.67;;;;;;;;;;5009170;28;20679;-54
2023/09/25 04:57:04;;;;;;;2.73;2.00;;;;;;;;;;5009794;28;20183;-54
2023/09/25 04:59:30;;;;;;;2.13;1.63;;;;;;;;;;5008611;28;20550;-54
2023/09/25 05:01:56;;;;;;;2.10;1.90;;;;;;;;;;5007923;28;20179;-53
2023/09/25 05:04:22;;;;;;;2.70;2.47;;;;;;;;;;5005673;28;20247;-54
2023/09/25 05:06:49;;;;;;;3.40;1.90;;;;;;;;;;5008410;28;20266;-54
2023/09/25 05:09:15;;;;;;;1.83;1.73;;;;;;;;;;4989794;28;20286;-54
2023/09/25 05:11:42;;;;;;;1.70;1.60;;;;;;;;;;4983278;28;20181;-53
2023/09/25 05:14:08;;;;;;;1.97;1.87;;;;;;;;;;5001085;28;20181;-54
2023/09/25 05:16:34;;;;;;;2.60;1.77;;;;;;;;;;5004670;28;20195;-53
2023/09/25 05:19:00;;;;;;;4.40;2.27;;;;;;;;;;5005026;28;20636;-54
2023/09/25 05:21:26;;;;;;;2.13;1.93;;;;;;;;;;5002247;28;20191;-54
2023/09/25 05:23:52;;;;;;;2.70;1.80;;;;;;;;;;5007704;28;20687;-54
2023/09/25 05:26:22;;;;;;;2.17;1.97;;;;;;;;;;5006766;28;20521;-53
2023/09/25 05:28:48;;;;;;;2.07;1.87;;;;;;;;;;5009118;28;20186;-54
2023/09/25 05:31:14;;;;;;;2.10;1.80;;;;;;;;;;4990929;28;20702;-53
2023/09/25 05:33:40;;;;;;;2.10;1.50;;;;;;;;;;5005175;28;20676;-53
2023/09/25 05:36:06;;;;;;;2.20;1.97;;;;;;;;;;5003248;28;20231;-52
2023/09/25 05:38:32;;;;;;;1.97;1.87;;;;;;;;;;5001741;28;20190;-52
2023/09/25 05:40:58;;;;;;;2.13;2.03;;;;;;;;;;5007785;28;20183;-51
2023/09/25 05:43:25;;;;;;;1.93;1.83;;;;;;;;;;5005315;28;20191;-52
2023/09/25 05:45:51;;;;;;;2.23;2.03;;;;;;;;;;4999075;28;20179;-51
2023/09/25 05:48:17;;;;;;;2.10;1.90;;;;;;;;;;5004492;28;20620;-51
2023/09/25 05:50:43;;;;;;;1.80;1.70;;;;;;;;;;5003037;28;20317;-51
2023/09/25 05:53:09;;;;;;;2.10;1.90;;;;;;;;;;4986972;28;20179;-51
2023/09/25 05:55:36;;;;;;;2.17;1.97;;;;;;;;;;5006002;28;20240;-53
2023/09/25 05:58:03;;;;;;;2.10;1.90;;;;;;;;;;5007994;28;20617;-53
2023/09/25 06:00:30;;;;;;;2.60;2.07;;;;;;;;;;5009063;28;20181;-53
2023/09/25 06:02:56;;;;;;;1.83;1.70;;;;;;;;;;5007786;28;20171;-52
2023/09/25 06:05:23;;;;;;;2.33;2.00;;;;;;;;;;4996399;28;20665;-53
2023/09/25 06:07:49;;;;;;;1.80;1.70;;;;;;;;;;4998918;28;20198;-51
2023/09/25 06:10:17;;;;;;;2.10;1.90;;;;;;;;;;5008956;28;20201;-51
2023/09/25 06:12:44;;;;;;;3.47;1.87;;;;;;;;;;5008857;28;20188;-52
2023/09/25 06:15:11;;;;;;;3.17;1.98;;;;;;;;;;5010584;28;20458;-51
2023/09/25 06:17:37;;;;;;;3.83;1.83;;;;;;;;;;5009680;28;20170;-51
2023/09/25 06:20:13;;;;;;;1.80;1.70;;;;;;;;;;5005451;28;20197;-51
2023/09/25 06:22:39;;;;;;;2.13;1.93;;;;;;;;;;5008290;28;20236;-51
2023/09/25 06:25:11;;;;;;;2.03;1.80;;;;;;;;;;5016801;28;21896;-52
2023/09/25 06:27:37;;;;;;;2.20;1.90;;;;;;;;;;5007762;28;20635;-52
2023/09/25 06:30:03;;;;;;;4.57;2.03;;;;;;;;;;5007911;28;20229;-52
2023/09/25 06:32:29;;;;;;;3.13;2.10;;;;;;;;;;5009253;28;20744;-52
2023/09/25 06:34:56;;;;;;;2.17;1.90;;;;;;;;;;5006780;28;20414;-55
2023/09/25 06:37:22;;;;;;;2.30;2.10;;;;;;;;;;5002013;28;20252;-52
2023/09/25 06:39:49;;;;;;;2.27;2.07;;;;;;;;;;5002188;28;20631;-52
2023/09/25 06:42:16;;;;;;;5.93;2.20;;;;;;;;;;5004531;28;20638;-52
2023/09/25 06:44:43;;;;;;;2.83;2.10;;;;;;;;;;4986787;28;20215;-52
2023/09/25 06:47:10;;;;;;;3.40;1.90;;;;;;;;;;5007158;28;20198;-52
2023/09/25 06:49:37;;;;;;;2.00;1.80;;;;;;;;;;5004163;28;20221;-51
2023/09/25 06:52:03;;;;;;;3.40;2.07;;;;;;;;;;5007969;28;20191;-51
2023/09/25 06:54:29;;;;;;;2.40;2.20;;;;;;;;;;5008887;28;20317;-53
2023/09/25 06:56:56;;;;;;;2.53;2.10;;;;;;;;;;5008269;28;20265;-52
2023/09/25 06:59:22;;;;;;;1.87;1.77;;;;;;;;;;5006321;28;20563;-51
2023/09/25 07:01:48;;;;;;;1.80;1.70;;;;;;;;;;5007113;28;20208;-52
2023/09/25 07:04:15;;;;;;;4.80;2.37;;;;;;;;;;5006907;28;20548;-55
2023/09/25 07:06:41;;;;;;;2.50;2.00;;;;;;;;;;5004517;28;20283;-52
2023/09/25 07:09:09;;;;;;;2.70;2.17;;;;;;;;;;5002624;28;20668;-51
2023/09/25 07:11:36;;;;;;;2.27;2.07;;;;;;;;;;5008527;28;20191;-52
2023/09/25 07:14:03;;;;;;;3.80;1.87;;;;;;;;;;5007611;28;20191;-51
2023/09/25 07:16:29;;;;;;;2.10;1.90;;;;;;;;;;5002945;28;20185;-53
2023/09/25 07:18:55;;;;;;;2.23;2.03;;;;;;;;;;5006575;28;20206;-53
2023/09/25 07:21:21;;;;;;;3.00;2.10;;;;;;;;;;5007380;28;20282;-52
2023/09/25 07:23:47;;;;;;;2.70;2.10;;;;;;;;;;5006254;28;20208;-53
2023/09/25 07:26:17;;;;;;;2.33;1.90;;;;;;;;;;5007643;28;20180;-53
2023/09/25 07:28:47;;;;;;;2.10;1.90;;;;;;;;;;4988194;28;20188;-56
2023/09/25 07:31:18;;;;;;;3.17;2.37;;;;;;;;;;4998237;28;20242;-52
2023/09/25 07:33:44;;;;;;;3.90;2.30;;;;;;;;;;4999765;28;20495;-52
2023/09/25 07:36:10;;;;;;;3.67;2.30;;;;;;;;;;5007465;28;20420;-52
2023/09/25 07:38:36;;;;;;;1.90;1.73;;;;;;;;;;5006746;28;20176;-53
2023/09/25 07:41:03;;;;;;;2.40;2.03;;;;;;;;;;5010668;28;20233;-53
2023/09/25 07:43:32;;;;;;;3.00;2.27;;;;;;;;;;5010719;28;20599;-53
2023/09/25 07:45:59;;;;;;;2.10;2.00;;;;;;;;;;5009077;28;20639;-53
2023/09/25 07:48:26;;;;;;;1.93;1.83;;;;;;;;;;5009967;28;20272;-52
2023/09/25 07:50:55;;;;;;;2.47;2.27;;;;;;;;;;5009964;28;20655;-53
2023/09/25 07:53:23;;;;;;;2.30;2.10;;;;;;;;;;5010830;28;20188;-52
2023/09/25 07:55:49;;;;;;;4.40;2.10;;;;;;;;;;5010376;28;20201;-52
2023/09/25 07:58:15;;;;;;;2.67;2.13;;;;;;;;;;5008065;28;20187;-52
2023/09/25 08:00:44;;;;;;;2.83;2.23;;;;;;;;;;5009412;28;20286;-52
2023/09/25 08:03:15;;;;;;;2.10;1.90;;;;;;;;;;5010088;28;20184;-52
2023/09/25 08:05:42;;;;;;;2.20;1.83;;;;;;;;;;5008058;28;20312;-53
2023/09/25 08:08:12;;;;;;;2.27;1.90;;;;;;;;;;5009872;28;20580;-52
2023/09/25 08:10:41;;;;;;;2.53;2.33;;;;;;;;;;5009731;28;20182;-53
2023/09/25 08:13:09;;;;;;;3.07;2.10;;;;;;;;;;5010073;28;20190;-54
2023/09/25 08:15:35;;;;;;;3.20;2.90;;;;;;;;;;5009304;28;20195;-53
2023/09/25 08:18:02;;;;;;;2.07;1.90;;;;;;;;;;5010675;28;20315;-53
2023/09/25 08:20:28;;;;;;;3.83;1.80;;;;;;;;;;5007225;28;20667;-53
2023/09/25 08:22:55;;;;;;;2.13;1.90;;;;;;;;;;5011207;28;20197;-53
2023/09/25 08:25:22;;;;;;;3.67;2.00;;;;;;;;;;5007523;28;20214;-54
2023/09/25 08:27:50;;;;;;;3.27;2.00;;;;;;;;;;5009976;28;20214;-54
2023/09/25 08:30:18;;;;;;;2.13;1.93;;;;;;;;;;5008456;28;20301;-53
2023/09/25 08:32:45;;;;;;;2.73;1.90;;;;;;;;;;5002949;28;20228;-53
2023/09/25 08:35:11;;;;;;;2.67;2.17;;;;;;;;;;5008372;28;20182;-54
2023/09/25 08:37:38;;;;;;;2.43;2.23;;;;;;;;;;5007922;28;20194;-55
2023/09/25 08:40:08;;;;;;;2.13;1.93;;;;;;;;;;5009042;28;20265;-53
2023/09/25 08:42:35;;;;;;;2.97;2.13;;;;;;;;;;5008471;28;20194;-53
2023/09/25 08:45:02;;;;;;;2.37;2.17;;;;;;;;;;5007675;28;20673;-52
2023/09/25 08:47:31;;;;;;;5.33;1.90;;;;;;;;;;5009081;28;20183;-54
2023/09/25 08:49:57;;;;;;;2.33;1.93;;;;;;;;;;5006567;28;20182;-54
2023/09/25 08:52:23;;;;;;;1.60;1.50;;;;;;;;;;5009083;28;20179;-55
2023/09/25 08:54:50;;;;;;;2.30;1.97;;;;;;;;;;5009181;28;20513;-54
2023/09/25 08:57:17;;;;;;;2.33;2.00;;;;;;;;;;5004470;28;20546;-54
2023/09/25 08:59:47;;;;;;;1.80;1.70;;;;;;;;;;5009341;28;20333;-54
2023/09/25 09:02:14;;;;;;;2.20;2.00;;;;;;;;;;5008836;28;20620;-54
2023/09/25 09:04:40;;;;;;;2.00;1.80;;;;;;;;;;5005612;28;20919;-53
2023/09/25 09:07:11;;;;;;;2.30;2.10;;;;;;;;;;5009958;28;20175;-54
2023/09/25 09:09:38;;;;;;;2.40;2.20;;;;;;;;;;5008598;28;20179;-53
2023/09/25 09:12:04;;;;;;;5.87;2.33;;;;;;;;;;5005228;28;20208;-54
2023/09/25 09:14:41;;;;;;;1.97;1.87;;;;;;;;;;5009030;28;20190;-54
2023/09/25 09:17:09;;;;;;;2.03;1.90;;;;;;;;;;5008287;28;20189;-54
2023/09/25 09:19:37;;;;;;;2.43;2.00;;;;;;;;;;5006927;28;20194;-53
2023/09/25 09:22:07;;;;;;;1.97;1.83;;;;;;;;;;5008435;28;20703;-54
2023/09/25 09:24:35;;;;;;;3.80;1.80;;;;;;;;;;5007548;28;20256;-54
2023/09/25 09:27:01;;;;;;;3.23;2.13;;;;;;;;;;5008090;28;20572;-54
2023/09/25 09:29:27;;;;;;;2.80;1.80;;;;;;;;;;5003567;28;20576;-53
2023/09/25 09:31:56;;;;;;;2.53;2.10;;;;;;;;;;5006535;28;20246;-53
2023/09/25 09:34:23;;;;;;;2.37;1.97;;;;;;;;;;5005414;28;20678;-53
2023/09/25 09:36:53;;;;;;;2.57;2.00;;;;;;;;;;5008936;28;20187;-53
2023/09/25 09:39:25;;;;;;;1.97;1.87;;;;;;;;;;5009062;28;20182;-54
2023/09/25 09:41:51;;;;;;;3.00;1.90;;;;;;;;;;5008430;28;20190;-54
2023/09/25 09:44:18;;;;;;;2.00;1.80;;;;;;;;;;5008699;28;20233;-53
2023/09/25 09:46:46;;;;;;;3.27;2.03;;;;;;;;;;5009003;28;20673;-53
2023/09/25 09:49:16;;;;;;;2.10;2.00;;;;;;;;;;5006305;28;20569;-53
2023/09/25 09:51:44;;;;;;;2.50;2.03;;;;;;;;;;5007445;28;20536;-54
2023/09/25 09:54:12;;;;;;;2.63;2.15;;;;;;;;;;5004089;28;20934;-53
2023/09/25 09:56:38;;;;;;;3.50;2.20;;;;;;;;;;5008217;28;20178;-54
2023/09/25 09:59:04;;;;;;;2.03;1.90;;;;;;;;;;5008075;28;20563;-53
2023/09/25 10:01:33;;;;;;;2.97;2.07;;;;;;;;;;5007527;28;20182;-53
2023/09/25 10:04:07;;;;;;;3.50;2.20;;;;;;;;;;5005872;28;20214;-53
2023/09/25 10:06:37;;;;;;;3.13;1.90;;;;;;;;;;5007614;28;20179;-53
2023/09/25 10:09:08;;;;;;;2.20;2.00;;;;;;;;;;5008286;28;20166;-53
2023/09/25 10:11:35;;;;;;;2.27;2.07;;;;;;;;;;4984294;28;20176;-53
2023/09/25 10:14:03;;;;;;;2.03;1.83;;;;;;;;;;5007310;28;20186;-52
2023/09/25 10:16:32;;;;;;;2.23;1.97;;;;;;;;;;5003862;28;20194;-53
2023/09/25 10:18:58;;;;;;;2.27;2.07;;;;;;;;;;5005602;28;20190;-53
2023/09/25 10:21:25;;;;;;;2.43;2.23;;;;;;;;;;5006775;28;20191;-53
2023/09/25 10:23:55;;;;;;;2.00;1.87;;;;;;;;;;5002581;28;20171;-53
2023/09/25 10:26:24;;;;;;;2.23;2.03;;;;;;;;;;5007397;28;20266;-53
2023/09/25 10:28:58;;;;;;;2.03;1.93;;;;;;;;;;4989405;28;20260;-53
2023/09/25 10:31:29;;;;;;;3.50;2.00;;;;;;;;;;4997244;28;20217;-52
2023/09/25 10:33:59;;;;;;;2.43;2.23;;;;;;;;;;5004374;28;20696;-52
2023/09/25 10:36:37;;;;;;;2.70;2.33;;;;;;;;;;4999159;28;20196;-52
2023/09/25 10:39:14;;;;;;;3.13;2.10;;;;;;;;;;4989699;28;20188;-53
2023/09/25 10:41:41;;;;;;;3.50;2.20;;;;;;;;;;5006738;28;20268;-52
2023/09/25 10:44:09;;;;;;;3.37;2.10;;;;;;;;;;5001356;28;20210;-53
2023/09/25 10:46:36;;;;;;;2.30;2.00;;;;;;;;;;5002835;28;20526;-53
2023/09/25 10:49:05;;;;;;;2.20;2.00;;;;;;;;;;5000497;28;20620;-54
2023/09/25 10:51:31;;;;;;;2.70;2.33;;;;;;;;;;5000301;28;20282;-54
2023/09/25 10:53:58;;;;;;;2.60;2.00;;;;;;;;;;5004271;28;20286;-54
2023/09/25 10:56:24;;;;;;;3.23;2.43;;;;;;;;;;5007559;28;20181;-54
2023/09/25 10:58:52;;;;;;;3.00;2.33;;;;;;;;;;5003352;28;20180;-54
2023/09/25 11:01:24;;;;;;;2.58;2.35;;;;;;;;;;5000604;28;20562;-54
2023/09/25 11:03:53;;;;;;;2.30;2.07;;;;;;;;;;5004982;28;20201;-54
2023/09/25 11:06:19;;;;;;;2.27;2.07;;;;;;;;;;4989017;28;20241;-54
2023/09/25 11:08:46;;;;;;;2.10;2.00;;;;;;;;;;5004482;28;20628;-53
2023/09/25 11:11:14;;;;;;;2.10;1.90;;;;;;;;;;5000454;28;20284;-54
2023/09/25 11:13:40;;;;;;;2.57;2.37;;;;;;;;;;5007557;28;20254;-55
2023/09/25 11:16:07;;;;;;;2.67;2.10;;;;;;;;;;5007370;28;20277;-54
2023/09/25 11:18:34;;;;;;;1.97;1.80;;;;;;;;;;5011465;28;20219;-54
2023/09/25 11:21:00;;;;;;;3.10;1.93;;;;;;;;;;5008502;28;20661;-54
2023/09/25 11:23:27;;;;;;;3.67;1.77;;;;;;;;;;5011698;28;20187;-54
2023/09/25 11:25:53;;;;;;;2.00;1.80;;;;;;;;;;5007116;28;20216;-54
2023/09/25 11:28:20;;;;;;;2.30;1.73;;;;;;;;;;5010886;28;20533;-55
2023/09/25 11:30:47;;;;;;;1.80;1.70;;;;;;;;;;5009995;28;20263;-54
2023/09/25 11:33:18;;;;;;;2.17;2.07;;;;;;;;;;5007125;28;20189;-54
2023/09/25 11:35:45;;;;;;;1.90;1.80;;;;;;;;;;5010394;28;20182;-54
2023/09/25 11:38:15;;;;;;;1.70;1.60;;;;;;;;;;5011482;28;20232;-54
2023/09/25 11:40:42;;;;;;;3.30;2.33;;;;;;;;;;4985565;28;20194;-53
2023/09/25 11:43:09;;;;;;;3.60;2.00;;;;;;;;;;5010936;28;20190;-54
2023/09/25 11:45:35;;;;;;;2.27;1.67;;;;;;;;;;5009169;28;20214;-54
2023/09/25 11:48:03;;;;;;;2.70;2.00;;;;;;;;;;5003553;28;20194;-54
2023/09/25 11:50:29;;;;;;;2.07;1.87;;;;;;;;;;5006018;28;20629;-54
2023/09/25 11:52:55;;;;;;;2.97;1.80;;;;;;;;;;5009252;28;20273;-55
2023/09/25 11:55:22;;;;;;;1.80;1.70;;;;;;;;;;5008238;28;20209;-54
2023/09/25 11:57:49;;;;;;;1.80;1.70;;;;;;;;;;5011591;28;20626;-55
2023/09/25 12:00:15;;;;;;;1.70;1.60;;;;;;;;;;5010007;28;20280;-54
2023/09/25 12:02:43;;;;;;;3.60;2.20;;;;;;;;;;5003814;28;20192;-54
2023/09/25 12:05:09;;;;;;;2.20;1.90;;;;;;;;;;5004168;28;20203;-54
2023/09/25 12:07:36;;;;;;;1.80;1.63;;;;;;;;;;4999309;28;20186;-55
2023/09/25 12:10:06;;;;;;;2.10;1.90;;;;;;;;;;4989583;28;20677;-55
2023/09/25 12:12:44;;;;;;;1.73;1.60;;;;;;;;;;5003176;28;20253;-54
2023/09/25 12:15:12;;;;;;;1.80;1.70;;;;;;;;;;5008369;28;20269;-54
2023/09/25 12:17:38;;;;;;;3.43;2.27;;;;;;;;;;5001122;28;20175;-54
2023/09/25 12:20:12;;;;;;;2.30;2.10;;;;;;;;;;5010098;28;20262;-54
2023/09/25 12:22:44;;;;;;;2.43;1.90;;;;;;;;;;4992962;28;20554;-61
2023/09/25 12:25:13;;;;;;;2.70;2.17;;;;;;;;;;5010145;28;20207;-54
2023/09/25 12:27:40;;;;;;;2.03;1.83;;;;;;;;;;5004491;28;20202;-55
2023/09/25 12:30:09;;;;;;;1.60;1.50;;;;;;;;;;5005288;28;20206;-55
2023/09/25 12:32:36;;;;;;;1.70;1.60;;;;;;;;;;5011085;28;20217;-51
2023/09/25 12:35:02;;;;;;;2.27;1.90;;;;;;;;;;4988889;28;20189;-52
2023/09/25 12:37:30;;;;;;;2.27;1.77;;;;;;;;;;4987370;28;20200;-52
2023/09/25 12:39:56;;;;;;;2.00;1.70;;;;;;;;;;5005736;28;20186;-52
2023/09/25 12:42:22;;;;;;;2.53;2.33;;;;;;;;;;5000274;28;20283;-54
2023/09/25 12:44:49;;;;;;;2.27;2.00;;;;;;;;;;5010694;28;20240;-51
2023/09/25 12:47:15;;;;;;;2.33;2.13;;;;;;;;;;5011065;28;20183;-50
2023/09/25 12:49:42;;;;;;;2.10;1.90;;;;;;;;;;5004998;28;20204;-51
2023/09/25 12:52:09;;;;;;;2.90;2.07;;;;;;;;;;5006486;28;20236;-51
2023/09/25 12:54:35;;;;;;;3.23;2.10;;;;;;;;;;5009917;28;20176;-51
2023/09/25 12:57:01;;;;;;;3.03;2.23;;;;;;;;;;5010836;28;20183;-50
2023/09/25 12:59:27;;;;;;;2.27;1.97;;;;;;;;;;5010151;28;20501;-51
2023/09/25 13:01:54;;;;;;;3.03;2.73;;;;;;;;;;5010123;28;20188;-52
2023/09/25 13:04:20;;;;;;;2.07;1.83;;;;;;;;;;5007658;28;20213;-51
2023/09/25 13:06:50;;;;;;;2.07;1.87;;;;;;;;;;5010039;28;20174;-51
2023/09/25 13:09:17;;;;;;;2.33;1.70;;;;;;;;;;5008590;28;20184;-51
2023/09/25 13:11:45;;;;;;;2.30;2.10;;;;;;;;;;5010010;28;20220;-52
2023/09/25 13:14:11;;;;;;;2.37;1.87;;;;;;;;;;4993948;28;20184;-51
2023/09/25 13:16:37;;;;;;;1.90;1.77;;;;;;;;;;4995063;28;20520;-51
2023/09/25 13:19:03;;;;;;;2.13;1.93;;;;;;;;;;4999709;28;20727;-53
2023/09/25 13:21:29;;;;;;;2.00;1.90;;;;;;;;;;5009263;28;20214;-51
2023/09/25 13:23:56;;;;;;;2.80;1.93;;;;;;;;;;5002371;28;20175;-52
2023/09/25 13:26:29;;;;;;;3.07;2.10;;;;;;;;;;5007628;28;20189;-52
2023/09/25 13:28:55;;;;;;;2.07;1.83;;;;;;;;;;5003125;28;20279;-51
2023/09/25 13:31:22;;;;;;;1.90;1.80;;;;;;;;;;5009746;28;20232;-51
2023/09/25 13:33:49;;;;;;;2.63;1.80;;;;;;;;;;5003640;28;20190;-54
2023/09/25 13:36:15;;;;;;;2.10;1.80;;;;;;;;;;5002684;28;20275;-54
2023/09/25 13:38:41;;;;;;;2.10;2.00;;;;;;;;;;5004157;28;20190;-51
2023/09/25 13:41:10;;;;;;;2.20;2.00;;;;;;;;;;5005712;28;20190;-50
2023/09/25 13:43:37;;;;;;;2.23;1.70;;;;;;;;;;5006130;28;20234;-51
2023/09/25 13:46:03;;;;;;;1.90;1.80;;;;;;;;;;4999674;28;20292;-51
2023/09/25 13:48:29;;;;;;;2.27;2.07;;;;;;;;;;5007724;28;20562;-51
2023/09/25 13:50:56;;;;;;;1.90;1.80;;;;;;;;;;5005043;28;20181;-51
2023/09/25 13:53:22;;;;;;;1.83;1.73;;;;;;;;;;5008222;28;20185;-52
2023/09/25 13:55:50;;;;;;;2.50;1.73;;;;;;;;;;5001777;28;21920;-51
2023/09/25 13:58:17;;;;;;;1.90;1.80;;;;;;;;;;4986709;28;20193;-51
2023/09/25 14:00:43;;;;;;;1.97;1.83;;;;;;;;;;5003974;28;20592;-52
2023/09/25 14:03:10;;;;;;;3.37;2.57;;;;;;;;;;5005985;28;20286;-52
2023/09/25 14:05:36;;;;;;;2.27;1.90;;;;;;;;;;5002273;28;20655;-51
2023/09/25 14:08:03;;;;;;;1.83;1.70;;;;;;;;;;5006823;28;20189;-52
2023/09/25 14:10:29;;;;;;;1.57;1.47;;;;;;;;;;5006407;28;20186;-53
2023/09/25 14:12:55;;;;;;;2.00;1.80;;;;;;;;;;5005366;28;20586;-51
2023/09/25 14:15:22;;;;;;;3.30;2.50;;;;;;;;;;5004750;28;20210;-51
2023/09/25 14:17:48;;;;;;;1.80;1.70;;;;;;;;;;5007088;28;20187;-51
2023/09/25 14:20:14;;;;;;;2.40;2.30;;;;;;;;;;5005547;28;20201;-52
2023/09/25 14:22:41;;;;;;;2.33;2.00;;;;;;;;;;5004549;28;20231;-51
2023/09/25 14:25:07;;;;;;;2.03;1.83;;;;;;;;;;5005321;28;20213;-51
2023/09/25 14:27:37;;;;;;;3.23;1.93;;;;;;;;;;5001086;28;20192;-51
2023/09/25 14:30:03;;;;;;;2.23;2.03;;;;;;;;;;5005433;28;20664;-51
2023/09/25 14:32:29;;;;;;;1.87;1.70;;;;;;;;;;5006423;28;20205;-52
2023/09/25 14:34:55;;;;;;;1.80;1.60;;;;;;;;;;5001274;28;20186;-51
2023/09/25 14:37:21;;;;;;;2.73;2.10;;;;;;;;;;5001905;28;20550;-50
2023/09/25 14:39:48;;;;;;;2.47;1.93;;;;;;;;;;5006142;28;20182;-50
2023/09/25 14:42:16;;;;;;;2.73;2.03;;;;;;;;;;5007074;28;20219;-51
2023/09/25 14:44:42;;;;;;;2.00;1.87;;;;;;;;;;5000968;28;20709;-50